Time;durP1;ratioP1;P1;durP2;ratioP2;P2;SDS_P1;SDS_P2;PMS_P1;PMS_P2;Temp;Humidity;BMP_temperature;BMP_pressure;BME280_temperature;BME280_humidity;BME280_pressure;Samples;Min_cycle;Max_cycle;Signal;HPM_P1;HPM_P2
2023/10/15 00:01:57;;;;;;;5.80;1.97;;;8.90;99.90;;;;;;5232267;28;20955;-49
2023/10/15 00:04:27;;;;;;;6.43;2.10;;;8.90;99.90;;;;;;5249942;28;20178;-48
2023/10/15 00:06:58;;;;;;;10.00;2.70;;;8.90;99.90;;;;;;5224188;28;20209;-47
2023/10/15 00:09:30;;;;;;;5.20;2.10;;;8.80;99.90;;;;;;5245283;28;20261;-47
2023/10/15 00:12:01;;;;;;;7.63;3.07;;;8.80;99.90;;;;;;5245470;28;20215;-48
2023/10/15 00:14:32;;;;;;;5.87;1.93;;;8.80;99.90;;;;;;5245095;28;20432;-47
2023/10/15 00:17:05;;;;;;;6.67;2.00;;;8.70;99.90;;;;;;5227594;28;20257;-49
2023/10/15 00:19:36;;;;;;;9.73;1.70;;;8.80;99.90;;;;;;5224331;28;20232;-49
2023/10/15 00:22:07;;;;;;;7.73;2.37;;;8.70;99.90;;;;;;5229317;28;20433;-47
2023/10/15 00:24:40;;;;;;;13.47;3.10;;;8.70;99.90;;;;;;5229677;28;20524;-48
2023/10/15 00:27:11;;;;;;;7.23;1.70;;;8.70;99.90;;;;;;5225657;28;20206;-47
2023/10/15 00:29:42;;;;;;;3.77;1.70;;;8.70;99.90;;;;;;5227511;28;20455;-47
2023/10/15 00:32:13;;;;;;;5.77;1.80;;;8.70;99.90;;;;;;5241556;28;20210;-47
2023/10/15 00:34:44;;;;;;;11.63;2.20;;;8.70;99.90;;;;;;5215434;28;20432;-48
2023/10/15 00:37:15;;;;;;;10.33;2.37;;;8.70;99.90;;;;;;5213338;28;20202;-47
2023/10/15 00:39:45;;;;;;;10.57;2.53;;;8.70;99.90;;;;;;5223627;28;20429;-47
2023/10/15 00:42:16;;;;;;;7.60;2.33;;;8.60;99.90;;;;;;5248932;28;20210;-49
2023/10/15 00:44:47;;;;;;;14.33;2.20;;;8.70;99.90;;;;;;5224808;28;20205;-50
2023/10/15 00:47:19;;;;;;;7.53;1.87;;;8.60;99.90;;;;;;5241570;28;20286;-48
2023/10/15 00:49:55;;;;;;;8.10;2.27;;;8.60;99.90;;;;;;5235166;28;20444;-49
2023/10/15 00:52:29;;;;;;;8.17;2.47;;;8.60;99.90;;;;;;5231917;28;20827;-48
2023/10/15 00:55:00;;;;;;;9.07;2.17;;;8.50;99.90;;;;;;5252163;28;20958;-50
2023/10/15 00:57:41;;;;;;;6.80;1.70;;;8.60;99.90;;;;;;5251442;28;20443;-47
2023/10/15 01:03:06;;;;;;;7.60;1.80;;;8.60;99.90;;;;;;5244120;28;20475;-47
2023/10/15 01:05:45;;;;;;;6.00;1.60;;;8.50;99.90;;;;;;5248299;28;20546;-47
2023/10/15 01:08:16;;;;;;;8.80;2.50;;;8.50;99.90;;;;;;5228936;28;20436;-49
2023/10/15 01:10:53;;;;;;;9.20;1.97;;;8.50;99.90;;;;;;5243913;28;20433;-49
2023/10/15 01:13:25;;;;;;;8.30;2.23;;;8.50;99.90;;;;;;5229267;28;20682;-49
2023/10/15 01:16:02;;;;;;;13.20;2.47;;;8.50;99.90;;;;;;5243266;28;20453;-47
2023/10/15 01:18:33;;;;;;;11.90;2.37;;;8.50;99.90;;;;;;5247304;28;20430;-48
2023/10/15 01:21:04;;;;;;;8.73;2.10;;;8.50;99.90;;;;;;5230451;28;20574;-48
2023/10/15 01:26:17;;;;;;;6.83;2.43;;;8.50;99.90;;;;;;5247326;28;20459;-46
2023/10/15 01:28:48;;;;;;;7.33;2.30;;;8.40;99.90;;;;;;5246572;28;20434;-47
2023/10/15 01:31:24;;;;;;;4.67;2.10;;;8.40;99.90;;;;;;5213244;28;20425;-48
2023/10/15 01:33:56;;;;;;;10.37;2.60;;;8.30;99.90;;;;;;5219644;28;20450;-47
2023/10/15 01:36:27;;;;;;;4.67;2.10;;;8.30;99.90;;;;;;5232128;28;20491;-48
2023/10/15 01:38:58;;;;;;;2.63;1.53;;;8.40;99.90;;;;;;5248337;28;21027;-48
2023/10/15 01:41:28;;;;;;;7.00;2.03;;;8.30;99.90;;;;;;5244787;28;20429;-48
2023/10/15 01:44:01;;;;;;;17.07;2.40;;;8.40;99.90;;;;;;5231559;28;20194;-49
2023/10/15 01:47:07;;;;;;;7.33;2.23;;;8.30;99.90;;;;;;5227445;28;20584;-49
2023/10/15 01:49:38;;;;;;;10.03;2.13;;;8.20;99.90;;;;;;5227587;28;20420;-49
2023/10/15 01:52:28;;;;;;;11.10;2.70;;;8.20;99.90;;;;;;5228197;28;20467;-48
2023/10/15 01:55:04;;;;;;;6.47;1.87;;;8.20;99.90;;;;;;5247999;28;20472;-48
2023/10/15 01:57:37;;;;;;;8.60;1.83;;;8.30;99.90;;;;;;5228283;28;20460;-49
2023/10/15 02:00:33;;;;;;;5.23;1.50;;;8.20;99.90;;;;;;5246807;28;20479;-48
2023/10/15 02:03:06;;;;;;;19.10;2.10;;;8.20;99.90;;;;;;5246822;28;20944;-49
2023/10/15 02:05:44;;;;;;;8.03;2.13;;;8.10;99.90;;;;;;5248663;28;20464;-48
2023/10/15 02:08:25;;;;;;;8.80;2.20;;;8.10;99.90;;;;;;5234370;28;21130;-47
2023/10/15 02:10:55;;;;;;;10.47;2.00;;;8.10;99.90;;;;;;5244164;28;20460;-48
2023/10/15 02:13:26;;;;;;;7.33;2.23;;;8.20;99.90;;;;;;5231522;28;20498;-50
2023/10/15 02:16:02;;;;;;;13.77;2.03;;;8.20;99.90;;;;;;5230190;28;20203;-48
2023/10/15 02:18:33;;;;;;;8.37;2.50;;;8.40;99.90;;;;;;5250043;28;20184;-49
2023/10/15 02:21:03;;;;;;;10.23;3.10;;;8.50;99.90;;;;;;5233641;28;20504;-48
2023/10/15 02:23:35;;;;;;;8.80;1.93;;;8.50;99.90;;;;;;5230677;28;20250;-47
2023/10/15 02:26:05;;;;;;;12.30;2.40;;;8.60;99.90;;;;;;5247762;28;20288;-47
2023/10/15 02:28:39;;;;;;;6.53;2.10;;;8.70;99.90;;;;;;5249328;28;20445;-48
2023/10/15 02:33:43;;;;;;;5.67;2.20;;;8.80;99.90;;;;;;5246641;28;20464;-48
2023/10/15 02:36:17;;;;;;;14.20;2.70;;;8.90;99.90;;;;;;5229405;28;20236;-49
2023/10/15 02:38:56;;;;;;;6.83;2.03;;;8.90;99.90;;;;;;5246279;28;20420;-48
2023/10/15 02:41:40;;;;;;;3.37;1.70;;;9.00;99.90;;;;;;5248770;28;20439;-48
2023/10/15 02:44:14;;;;;;;2.53;1.57;;;8.90;99.90;;;;;;5248745;28;20775;-49
2023/10/15 02:46:47;;;;;;;9.43;1.70;;;8.90;99.90;;;;;;5229847;28;20532;-49
2023/10/15 02:49:18;;;;;;;6.50;1.97;;;8.70;99.90;;;;;;5247050;28;20799;-48
2023/10/15 02:51:49;;;;;;;4.70;1.63;;;8.70;99.90;;;;;;5246085;28;20464;-50
2023/10/15 02:54:36;;;;;;;3.77;1.40;;;8.60;99.90;;;;;;5230693;28;20212;-47
2023/10/15 02:57:15;;;;;;;7.90;2.17;;;8.50;99.90;;;;;;5231125;28;20474;-48
2023/10/15 02:59:52;;;;;;;4.57;2.17;;;8.40;99.90;;;;;;5229606;28;20519;-49
2023/10/15 03:02:25;;;;;;;4.07;1.80;;;8.30;99.90;;;;;;5243716;28;20858;-49
2023/10/15 03:04:56;;;;;;;8.80;2.50;;;8.20;99.90;;;;;;5249529;28;20882;-47
2023/10/15 03:07:30;;;;;;;13.70;3.27;;;8.20;99.90;;;;;;5226741;28;20531;-47
2023/10/15 03:10:03;;;;;;;16.17;2.13;;;8.20;99.90;;;;;;5248007;28;20194;-48
2023/10/15 03:12:34;;;;;;;3.37;1.60;;;8.00;99.90;;;;;;5224128;28;20506;-48
2023/10/15 03:15:07;;;;;;;13.83;2.60;;;8.00;99.90;;;;;;5228073;28;20839;-48
2023/10/15 03:17:43;;;;;;;5.97;1.90;;;7.90;99.90;;;;;;5241172;28;20194;-49
2023/10/15 03:22:51;;;;;;;9.20;2.80;;;7.90;99.90;;;;;;5248807;28;20440;-48
2023/10/15 03:25:22;;;;;;;7.90;2.00;;;7.80;99.90;;;;;;5242362;28;20428;-47
2023/10/15 03:27:54;;;;;;;5.60;2.37;;;7.80;99.90;;;;;;5232513;28;20450;-49
2023/10/15 03:30:25;;;;;;;9.50;2.30;;;7.80;99.90;;;;;;5228046;28;20190;-48
2023/10/15 03:33:00;;;;;;;5.50;2.03;;;7.70;99.90;;;;;;5227321;28;20457;-48
2023/10/15 03:35:37;;;;;;;6.43;2.33;;;7.70;99.90;;;;;;5225879;28;20194;-48
2023/10/15 03:38:13;;;;;;;6.67;2.73;;;7.60;99.90;;;;;;5232966;28;20895;-48
2023/10/15 03:40:49;;;;;;;6.03;2.13;;;7.60;99.90;;;;;;5230137;28;20428;-49
2023/10/15 03:43:20;;;;;;;13.17;2.70;;;7.60;99.90;;;;;;5247967;28;20936;-48
2023/10/15 03:45:55;;;;;;;13.27;2.60;;;7.60;99.90;;;;;;5223149;28;20526;-49
2023/10/15 03:48:29;;;;;;;12.03;2.43;;;7.70;99.90;;;;;;5223840;28;20185;-47
2023/10/15 03:50:59;;;;;;;8.47;2.37;;;7.60;99.90;;;;;;5246288;28;20495;-47
2023/10/15 03:53:31;;;;;;;18.60;2.47;;;7.60;99.90;;;;;;5231333;28;20465;-49
2023/10/15 03:56:04;;;;;;;9.57;2.77;;;7.60;99.90;;;;;;5227281;28;20213;-46
2023/10/15 03:58:35;;;;;;;8.87;2.63;;;7.50;99.90;;;;;;5244140;28;20444;-48
2023/10/15 04:03:43;;;;;;;9.30;3.60;;;7.60;99.90;;;;;;5240286;28;20461;-50
2023/10/15 04:06:15;;;;;;;8.30;2.43;;;7.50;99.90;;;;;;5246054;28;20557;-49
2023/10/15 04:09:33;;;;;;;10.57;1.77;;;7.60;99.90;;;;;;5227337;28;20444;-49
2023/10/15 04:11:43;;;;;;;9.27;2.47;;;7.50;99.90;;;;;;5235758;28;20457;-48
2023/10/15 04:14:21;;;;;;;11.33;2.67;;;7.50;99.90;;;;;;5228961;28;20951;-47
2023/10/15 04:16:52;;;;;;;2.57;1.30;;;7.50;99.90;;;;;;5242354;28;20471;-47
2023/10/15 04:19:25;;;;;;;12.30;2.10;;;7.50;99.90;;;;;;5246262;28;20440;-47
2023/10/15 04:22:00;;;;;;;7.63;2.03;;;7.40;99.90;;;;;;5226997;28;20194;-48
2023/10/15 04:24:36;;;;;;;13.00;2.13;;;7.50;99.90;;;;;;5242885;28;20436;-49
2023/10/15 04:27:14;;;;;;;12.40;2.77;;;7.50;99.90;;;;;;5240001;28;20468;-48
2023/10/15 04:29:50;;;;;;;14.40;1.67;;;7.50;99.90;;;;;;5225558;28;20954;-48
2023/10/15 04:32:45;;;;;;;7.50;1.80;;;7.50;99.90;;;;;;5240293;28;20483;-48
2023/10/15 04:35:18;;;;;;;6.67;2.27;;;7.40;99.90;;;;;;5225731;28;20424;-48
2023/10/15 04:37:52;;;;;;;8.40;1.90;;;7.40;99.90;;;;;;5211712;28;20432;-47
2023/10/15 04:40:23;;;;;;;4.57;2.20;;;7.40;99.90;;;;;;5246241;28;20804;-48
2023/10/15 04:42:59;;;;;;;18.03;2.20;;;7.40;99.90;;;;;;5250066;28;20479;-47
2023/10/15 04:48:12;;;;;;;6.97;1.67;;;7.40;99.90;;;;;;5244834;28;20535;-47
2023/10/15 04:50:43;;;;;;;9.67;1.90;;;7.30;99.90;;;;;;5244894;28;20447;-48
2023/10/15 04:55:52;;;;;;;5.50;2.33;;;7.20;99.90;;;;;;5243025;28;20447;-47
2023/10/15 04:58:27;;;;;;;13.30;2.73;;;7.30;99.90;;;;;;5229253;28;20480;-48
2023/10/15 05:00:59;;;;;;;7.40;2.40;;;7.20;99.90;;;;;;5224925;28;20436;-49
2023/10/15 05:03:31;;;;;;;11.30;2.60;;;7.20;99.90;;;;;;5246913;28;20859;-47
2023/10/15 05:06:05;;;;;;;6.93;2.70;;;7.10;99.90;;;;;;5207820;28;20461;-46
2023/10/15 05:08:40;;;;;;;10.03;2.30;;;7.20;99.90;;;;;;5248687;28;20441;-48
2023/10/15 05:11:11;;;;;;;7.90;1.80;;;7.10;99.90;;;;;;5245059;28;20440;-47
2023/10/15 05:13:53;;;;;;;7.10;1.90;;;7.10;99.90;;;;;;5231438;28;20229;-47
2023/10/15 05:16:23;;;;;;;7.60;2.17;;;7.10;99.90;;;;;;5236298;28;20198;-47
2023/10/15 05:18:54;;;;;;;11.30;1.40;;;7.10;99.90;;;;;;5246140;28;20462;-48
2023/10/15 05:21:46;;;;;;;7.10;2.20;;;7.10;99.90;;;;;;5226674;28;20186;-47
2023/10/15 05:24:18;;;;;;;9.53;1.60;;;7.00;99.90;;;;;;5220402;28;20264;-48
2023/10/15 05:26:49;;;;;;;18.40;2.93;;;7.00;99.90;;;;;;5225324;28;20455;-47
2023/10/15 05:29:20;;;;;;;9.17;2.37;;;7.00;99.90;;;;;;5244697;28;20801;-47
2023/10/15 05:31:53;;;;;;;13.37;2.10;;;7.00;99.90;;;;;;5243477;28;20209;-47
2023/10/15 05:34:27;;;;;;;11.33;2.17;;;7.00;99.90;;;;;;5222061;28;20449;-47
2023/10/15 05:36:58;;;;;;;8.73;2.63;;;7.10;99.90;;;;;;5225717;28;20589;-47
2023/10/15 05:39:28;;;;;;;6.33;2.50;;;7.10;99.90;;;;;;5246567;28;20440;-47
2023/10/15 05:41:59;;;;;;;10.17;2.50;;;7.10;99.90;;;;;;5207053;28;20202;-48
2023/10/15 05:44:30;;;;;;;6.13;1.80;;;7.00;99.90;;;;;;5226093;28;20202;-47
2023/10/15 05:47:01;;;;;;;19.93;2.37;;;7.10;99.90;;;;;;5228653;28;20238;-47
2023/10/15 05:49:32;;;;;;;7.97;2.13;;;7.10;99.90;;;;;;5247556;28;20240;-46
2023/10/15 05:52:03;;;;;;;5.90;2.30;;;7.20;99.90;;;;;;5224723;28;20504;-48
2023/10/15 05:54:35;;;;;;;2.20;1.60;;;7.20;99.90;;;;;;5249069;28;20179;-48
2023/10/15 05:57:08;;;;;;;11.83;2.20;;;7.30;99.90;;;;;;5226826;28;20968;-46
2023/10/15 05:59:43;;;;;;;15.07;2.13;;;7.30;99.90;;;;;;5212153;28;20289;-48
2023/10/15 06:02:25;;;;;;;6.37;2.10;;;7.40;99.90;;;;;;5242644;28;20446;-46
2023/10/15 06:04:56;;;;;;;6.77;1.67;;;7.50;99.90;;;;;;5248091;28;20455;-49
2023/10/15 06:07:26;;;;;;;14.20;2.43;;;7.50;99.90;;;;;;5225707;28;20452;-48
2023/10/15 06:09:57;;;;;;;6.27;1.97;;;7.70;99.90;;;;;;5245390;28;20243;-48
2023/10/15 06:12:28;;;;;;;6.17;2.30;;;7.80;99.90;;;;;;5246711;28;20198;-48
2023/10/15 06:14:59;;;;;;;14.10;2.50;;;7.80;99.90;;;;;;5229884;28;20194;-49
2023/10/15 06:17:31;;;;;;;12.47;2.03;;;7.90;99.90;;;;;;5228821;28;20199;-47
2023/10/15 06:20:14;;;;;;;12.20;2.70;;;8.00;99.90;;;;;;5225852;28;20452;-48
2023/10/15 06:22:55;;;;;;;8.40;2.50;;;8.10;99.90;;;;;;5243637;28;20485;-47
2023/10/15 06:25:25;;;;;;;10.40;1.70;;;8.10;99.90;;;;;;5239163;28;20442;-48
2023/10/15 06:27:56;;;;;;;10.83;2.27;;;8.50;99.90;;;;;;5220848;28;20463;-47
2023/10/15 06:30:27;;;;;;;8.10;1.73;;;10.10;99.90;;;;;;5222715;28;20186;-47
2023/10/15 06:32:58;;;;;;;10.70;1.97;;;11.50;99.90;;;;;;5224747;28;20217;-48
2023/10/15 06:35:28;;;;;;;13.43;1.73;;;12.40;99.90;;;;;;5239532;28;20213;-48
2023/10/15 06:37:59;;;;;;;5.57;1.93;;;13.20;99.90;;;;;;5244089;28;20523;-49
2023/10/15 06:40:49;;;;;;;12.30;2.27;;;13.80;98.50;;;;;;5245937;28;20184;-48
2023/10/15 06:43:23;;;;;;;13.10;1.67;;;14.60;95.60;;;;;;5221118;28;20183;-48
2023/10/15 06:45:54;;;;;;;7.17;2.30;;;15.40;94.20;;;;;;5243827;28;20587;-49
2023/10/15 06:48:24;;;;;;;4.30;1.77;;;16.10;87.10;;;;;;5226328;28;20519;-49
2023/10/15 06:50:55;;;;;;;17.77;2.60;;;16.30;83.50;;;;;;5246644;28;20182;-51
2023/10/15 06:53:26;;;;;;;2.70;1.50;;;16.30;79.90;;;;;;5246751;28;20204;-48
2023/10/15 06:55:56;;;;;;;8.83;2.20;;;16.60;77.60;;;;;;5247699;28;20251;-48
2023/10/15 06:58:30;;;;;;;3.50;1.97;;;16.70;74.20;;;;;;5249000;28;20605;-48
2023/10/15 07:01:02;;;;;;;7.23;1.60;;;16.20;75.50;;;;;;5247009;28;20265;-48
2023/10/15 07:03:33;;;;;;;4.03;2.20;;;16.60;74.30;;;;;;5245242;28;20432;-50
2023/10/15 07:06:04;;;;;;;6.70;2.00;;;16.60;72.40;;;;;;5228732;28;20518;-49
2023/10/15 07:08:35;;;;;;;7.70;2.30;;;16.60;70.70;;;;;;5243377;28;20444;-48
2023/10/15 07:11:05;;;;;;;9.70;1.80;;;16.20;70.30;;;;;;5249371;28;20259;-50
2023/10/15 07:13:36;;;;;;;3.53;2.13;;;15.60;73.80;;;;;;5220614;28;20241;-51
2023/10/15 07:16:07;;;;;;;7.57;2.13;;;15.50;73.60;;;;;;5240421;28;20208;-49
2023/10/15 07:18:39;;;;;;;2.03;1.50;;;16.10;72.00;;;;;;5241026;28;20179;-48
2023/10/15 07:21:10;;;;;;;8.03;2.20;;;16.00;73.40;;;;;;5220213;28;20743;-48
2023/10/15 07:23:41;;;;;;;4.17;1.87;;;16.20;72.30;;;;;;5241440;28;20500;-48
2023/10/15 07:26:12;;;;;;;4.90;1.70;;;15.40;72.20;;;;;;5243092;28;20274;-49
2023/10/15 07:28:43;;;;;;;2.23;1.57;;;14.30;74.80;;;;;;5243563;28;20515;-48
2023/10/15 07:31:14;;;;;;;16.63;2.00;;;13.20;78.60;;;;;;5222261;28;20194;-49
2023/10/15 07:33:46;;;;;;;3.30;1.60;;;12.40;82.70;;;;;;5223457;28;20226;-48
2023/10/15 07:36:16;;;;;;;3.70;1.93;;;11.40;87.40;;;;;;5235915;28;20678;-50
2023/10/15 07:38:47;;;;;;;9.70;2.17;;;10.90;92.00;;;;;;5222441;28;20440;-49
2023/10/15 07:41:18;;;;;;;5.20;1.13;;;10.60;95.60;;;;;;5225690;28;20186;-48
2023/10/15 07:43:49;;;;;;;8.63;1.70;;;10.10;98.40;;;;;;5236772;28;20210;-49
2023/10/15 07:46:19;;;;;;;4.63;2.17;;;10.00;99.90;;;;;;5208650;28;20216;-48
2023/10/15 07:48:51;;;;;;;10.63;2.80;;;9.80;99.90;;;;;;5227010;28;20268;-49
2023/10/15 07:51:22;;;;;;;5.30;1.87;;;9.90;99.90;;;;;;5222466;28;20182;-48
2023/10/15 07:53:52;;;;;;;4.43;1.13;;;10.00;99.90;;;;;;5240629;28;20514;-49
2023/10/15 07:56:23;;;;;;;5.77;1.43;;;10.10;99.90;;;;;;5222363;28;20243;-49
2023/10/15 07:58:54;;;;;;;6.43;1.87;;;10.20;99.90;;;;;;5226921;28;20197;-48
2023/10/15 08:01:25;;;;;;;9.07;2.07;;;10.00;99.90;;;;;;5247265;28;20186;-50
2023/10/15 08:03:59;;;;;;;7.17;1.77;;;9.90;99.90;;;;;;5226529;28;20216;-50
2023/10/15 08:06:29;;;;;;;6.73;2.40;;;10.00;99.90;;;;;;5242679;28;20457;-49
2023/10/15 08:09:00;;;;;;;5.80;1.50;;;10.10;99.90;;;;;;5246839;28;20423;-49
2023/10/15 08:11:31;;;;;;;14.70;1.77;;;10.00;99.90;;;;;;5241521;28;20195;-49
2023/10/15 08:14:02;;;;;;;6.87;2.20;;;9.90;99.90;;;;;;5226934;28;20228;-49
2023/10/15 08:16:33;;;;;;;7.07;1.87;;;10.10;99.90;;;;;;5240648;28;20987;-49
2023/10/15 08:19:04;;;;;;;2.60;1.03;;;10.30;99.90;;;;;;5241187;28;20208;-48
2023/10/15 08:21:35;;;;;;;10.07;1.90;;;10.30;99.90;;;;;;5218475;28;20523;-49
2023/10/15 08:24:06;;;;;;;7.67;1.53;;;10.20;99.90;;;;;;5246864;28;20420;-49
2023/10/15 08:26:37;;;;;;;3.90;1.73;;;10.30;99.90;;;;;;5243876;28;20460;-47
2023/10/15 08:29:09;;;;;;;5.67;1.40;;;10.20;99.90;;;;;;5240462;28;20443;-50
2023/10/15 08:31:40;;;;;;;5.13;1.13;;;10.30;99.90;;;;;;5238921;28;20167;-49
2023/10/15 08:34:12;;;;;;;2.43;1.20;;;10.20;99.90;;;;;;5247529;28;21092;-49
2023/10/15 08:36:43;;;;;;;4.00;1.30;;;10.20;99.90;;;;;;5240315;28;20555;-49
2023/10/15 08:39:13;;;;;;;4.73;1.20;;;10.00;99.90;;;;;;5244356;28;20519;-52
2023/10/15 08:41:45;;;;;;;3.87;0.63;;;10.00;99.90;;;;;;5226661;28;20181;-50
2023/10/15 08:44:18;;;;;;;3.27;1.20;;;10.10;99.90;;;;;;5245767;28;20656;-50
2023/10/15 08:46:51;;;;;;;3.80;1.73;;;10.30;99.90;;;;;;5229838;28;20452;-52
2023/10/15 08:49:24;;;;;;;9.90;1.40;;;10.30;99.90;;;;;;5212342;28;20441;-50
2023/10/15 08:51:55;;;;;;;5.67;1.53;;;10.50;99.90;;;;;;5196125;28;20849;-49
2023/10/15 08:54:27;;;;;;;2.60;1.40;;;10.50;99.90;;;;;;5222330;28;20592;-49
2023/10/15 08:56:58;;;;;;;4.40;1.13;;;10.50;99.90;;;;;;5222706;28;20464;-48
2023/10/15 08:59:31;;;;;;;2.40;1.17;;;10.50;99.90;;;;;;5244604;28;20441;-48
2023/10/15 09:02:08;;;;;;;4.10;0.90;;;10.60;99.90;;;;;;5236543;28;20451;-49
2023/10/15 09:04:38;;;;;;;1.60;0.80;;;10.50;99.90;;;;;;5208874;28;20467;-48
2023/10/15 09:07:10;;;;;;;1.70;0.83;;;10.40;99.90;;;;;;5239846;28;20460;-50
2023/10/15 09:09:41;;;;;;;15.27;1.20;;;10.50;99.90;;;;;;5227040;28;20190;-49
2023/10/15 09:12:12;;;;;;;2.73;1.40;;;10.20;99.90;;;;;;5246257;28;20472;-50
2023/10/15 09:14:47;;;;;;;4.67;0.97;;;10.50;99.90;;;;;;5248121;28;20439;-48
2023/10/15 09:17:18;;;;;;;16.70;1.27;;;10.60;99.90;;;;;;5247213;28;20506;-50
2023/10/15 09:19:49;;;;;;;2.93;0.90;;;11.00;99.90;;;;;;5228021;28;20437;-49
2023/10/15 09:22:20;;;;;;;6.20;1.70;;;11.20;99.90;;;;;;5246164;28;20436;-49
2023/10/15 09:24:50;;;;;;;1.63;1.23;;;11.10;99.90;;;;;;5245621;28;20214;-50
2023/10/15 09:27:21;;;;;;;1.57;1.10;;;11.10;99.90;;;;;;5246553;28;20201;-50
2023/10/15 09:30:18;;;;;;;4.77;1.80;;;10.90;99.90;;;;;;5211775;28;20217;-49
2023/10/15 09:32:49;;;;;;;1.27;1.03;;;10.80;99.90;;;;;;5243221;28;20237;-50
2023/10/15 09:35:21;;;;;;;2.63;0.97;;;10.80;99.90;;;;;;5247950;28;20428;-48
2023/10/15 09:37:54;;;;;;;1.30;1.17;;;10.60;99.90;;;;;;5226416;28;20960;-50
2023/10/15 09:40:30;;;;;;;2.60;0.97;;;10.70;99.90;;;;;;5225228;28;20519;-50
2023/10/15 09:43:01;;;;;;;3.83;1.13;;;10.90;99.90;;;;;;5243383;28;20472;-51
2023/10/15 09:45:32;;;;;;;2.93;0.70;;;11.10;99.90;;;;;;5226320;28;20475;-50
2023/10/15 09:48:05;;;;;;;2.07;0.73;;;11.40;99.30;;;;;;5229267;28;20440;-49
2023/10/15 09:50:39;;;;;;;1.03;1.03;;;11.50;99.20;;;;;;5233055;28;21743;-48
2023/10/15 09:53:12;;;;;;;5.30;0.83;;;11.70;98.80;;;;;;5230645;28;20559;-48
2023/10/15 09:55:45;;;;;;;7.80;0.87;;;11.80;98.00;;;;;;5224816;28;20461;-51
2023/10/15 09:58:17;;;;;;;4.93;1.07;;;11.80;98.00;;;;;;5241849;28;20445;-50
2023/10/15 10:03:47;;;;;;;2.23;1.13;;;12.10;97.30;;;;;;5248012;28;20563;-49
2023/10/15 10:06:37;;;;;;;2.93;1.33;;;12.30;97.00;;;;;;5249116;28;20523;-50
2023/10/15 10:09:42;;;;;;;3.80;1.63;;;12.20;96.80;;;;;;5249244;28;20423;-49
2023/10/15 10:12:23;;;;;;;3.90;1.70;;;12.00;96.30;;;;;;5238146;28;20861;-51
2023/10/15 10:15:30;;;;;;;6.20;2.13;;;11.70;96.80;;;;;;5225526;28;20851;-49
2023/10/15 10:18:03;;;;;;;2.00;1.80;;;11.60;97.20;;;;;;5219960;28;20548;-47
2023/10/15 10:20:36;;;;;;;4.00;2.33;;;11.60;97.10;;;;;;5222913;28;20510;-48
2023/10/15 10:23:07;;;;;;;5.60;1.87;;;11.30;97.20;;;;;;5229666;28;20456;-48
2023/10/15 10:25:49;;;;;;;3.63;0.70;;;11.20;97.30;;;;;;5243180;28;20461;-51
2023/10/15 10:28:20;;;;;;;1.10;0.73;;;11.30;97.40;;;;;;5223423;28;20980;-47
2023/10/15 10:30:55;;;;;;;2.93;0.77;;;11.30;97.20;;;;;;5236803;28;20532;-49
2023/10/15 10:33:50;;;;;;;2.17;1.03;;;11.10;97.20;;;;;;5240569;28;20471;-50
2023/10/15 10:36:27;;;;;;;0.80;0.70;;;11.00;97.70;;;;;;5246080;28;20530;-50
2023/10/15 10:39:11;;;;;;;1.50;0.90;;;11.30;97.70;;;;;;5224896;28;20445;-50
2023/10/15 10:41:49;;;;;;;3.53;1.50;;;11.60;97.30;;;;;;5211345;28;21177;-52
2023/10/15 10:44:23;;;;;;;7.47;4.00;;;11.70;97.30;;;;;;5227317;28;20470;-50
2023/10/15 10:46:56;;;;;;;3.67;1.50;;;12.00;96.50;;;;;;5222915;28;20830;-50
2023/10/15 10:49:34;;;;;;;5.03;3.17;;;12.40;95.90;;;;;;5225279;28;20441;-51
2023/10/15 10:52:16;;;;;;;2.00;1.37;;;12.50;95.20;;;;;;5222955;28;20564;-49
2023/10/15 10:54:48;;;;;;;3.10;2.70;;;12.60;94.60;;;;;;5240742;28;20435;-49
2023/10/15 10:57:20;;;;;;;4.00;2.73;;;12.50;93.90;;;;;;5240054;28;20810;-50
2023/10/15 10:59:52;;;;;;;5.00;3.47;;;12.50;94.00;;;;;;5221576;28;20435;-51
2023/10/15 11:02:23;;;;;;;3.70;2.00;;;12.30;94.30;;;;;;5240588;28;20438;-49
2023/10/15 11:04:54;;;;;;;1.57;1.13;;;12.20;95.00;;;;;;5245566;28;20939;-51
2023/10/15 11:07:35;;;;;;;1.80;1.30;;;12.30;95.00;;;;;;5222486;28;20452;-50
2023/10/15 11:10:06;;;;;;;4.33;3.53;;;12.20;95.00;;;;;;5241896;28;20182;-49
2023/10/15 11:12:37;;;;;;;3.20;0.70;;;12.10;94.60;;;;;;5235870;28;20468;-50
2023/10/15 11:15:08;;;;;;;5.80;1.37;;;11.80;94.50;;;;;;5224141;28;20435;-50
2023/10/15 11:17:54;;;;;;;1.70;0.70;;;11.70;95.20;;;;;;5241965;28;20535;-50
2023/10/15 11:20:30;;;;;;;1.17;1.00;;;11.70;95.50;;;;;;5245202;28;20185;-50
2023/10/15 11:23:06;;;;;;;1.40;0.93;;;11.70;95.90;;;;;;5242652;28;20539;-51
2023/10/15 11:25:36;;;;;;;1.10;1.03;;;11.50;95.50;;;;;;5243474;28;20843;-49
2023/10/15 11:28:11;;;;;;;12.77;2.17;;;11.30;95.90;;;;;;5241499;28;20432;-49
2023/10/15 11:30:42;;;;;;;2.43;1.00;;;11.10;95.80;;;;;;5244240;28;20201;-51
2023/10/15 11:33:17;;;;;;;1.80;1.03;;;11.00;96.00;;;;;;5246176;28;20555;-49
2023/10/15 11:35:48;;;;;;;2.40;1.07;;;11.00;96.20;;;;;;5226178;28;20202;-50
2023/10/15 11:38:20;;;;;;;7.43;1.60;;;11.10;96.00;;;;;;5219104;28;25840;-52
2023/10/15 11:40:54;;;;;;;3.60;1.20;;;11.10;95.90;;;;;;5243423;28;20646;-51
2023/10/15 11:43:26;;;;;;;1.20;1.10;;;11.20;95.30;;;;;;5239824;28;20877;-50
2023/10/15 11:46:07;;;;;;;1.00;0.90;;;11.10;94.80;;;;;;5240432;28;20552;-50
2023/10/15 11:48:39;;;;;;;2.23;0.70;;;10.90;95.10;;;;;;5241885;28;20439;-52
2023/10/15 11:51:10;;;;;;;3.27;1.60;;;10.70;95.50;;;;;;5225774;28;20428;-50
2023/10/15 11:53:41;;;;;;;3.57;3.27;;;10.50;95.70;;;;;;5248132;28;20987;-51
2023/10/15 11:56:16;;;;;;;2.73;1.13;;;10.40;95.80;;;;;;5221220;28;20223;-51
2023/10/15 11:58:48;;;;;;;0.97;0.97;;;10.50;96.10;;;;;;5241987;28;20443;-49
2023/10/15 12:01:19;;;;;;;4.10;0.80;;;10.60;96.10;;;;;;5212057;28;20527;-48
2023/10/15 12:03:50;;;;;;;4.27;1.47;;;10.70;96.30;;;;;;5239538;28;20451;-50
2023/10/15 12:06:20;;;;;;;0.80;0.80;;;10.90;96.20;;;;;;5223152;28;20206;-50
2023/10/15 12:08:52;;;;;;;3.37;1.27;;;10.90;95.00;;;;;;5240388;28;20444;-50
2023/10/15 12:11:23;;;;;;;2.80;1.40;;;11.00;94.80;;;;;;5216679;28;20232;-50
2023/10/15 12:13:54;;;;;;;3.10;1.10;;;11.10;94.60;;;;;;5235944;28;20875;-50
2023/10/15 12:16:24;;;;;;;3.17;2.20;;;11.10;94.90;;;;;;5232449;28;20191;-52
2023/10/15 12:18:55;;;;;;;5.20;1.43;;;11.30;94.70;;;;;;5236251;28;20197;-49
2023/10/15 12:21:26;;;;;;;18.57;7.23;;;11.50;94.90;;;;;;5241116;28;20243;-51
2023/10/15 12:23:58;;;;;;;7.53;3.80;;;11.70;95.00;;;;;;5225660;28;20448;-49
2023/10/15 12:26:28;;;;;;;7.13;1.60;;;11.80;94.80;;;;;;5242316;28;20206;-50
2023/10/15 12:28:59;;;;;;;1.00;0.90;;;11.90;94.20;;;;;;5246558;28;20439;-51
2023/10/15 12:31:32;;;;;;;4.40;1.07;;;12.00;93.80;;;;;;5240895;28;20189;-50
2023/10/15 12:34:04;;;;;;;3.13;1.00;;;12.20;92.50;;;;;;5224473;28;20682;-52
2023/10/15 12:36:35;;;;;;;6.03;1.10;;;12.30;91.80;;;;;;5243267;28;20445;-50
2023/10/15 12:39:06;;;;;;;2.37;1.43;;;12.40;91.10;;;;;;5243033;28;20436;-50
2023/10/15 12:41:38;;;;;;;1.43;0.80;;;12.30;90.80;;;;;;5221460;28;20492;-50
2023/10/15 12:44:11;;;;;;;1.53;0.97;;;12.10;90.80;;;;;;5229499;28;20182;-50
2023/10/15 12:46:42;;;;;;;1.47;0.70;;;11.90;91.10;;;;;;5214767;28;20456;-52
2023/10/15 12:49:13;;;;;;;0.87;0.60;;;12.00;91.50;;;;;;5242771;28;20440;-50
2023/10/15 12:51:43;;;;;;;1.67;1.20;;;12.00;91.40;;;;;;5232632;28;20175;-52
2023/10/15 12:54:14;;;;;;;1.97;0.97;;;12.00;91.70;;;;;;5231082;28;20276;-50
2023/10/15 12:56:45;;;;;;;3.87;1.13;;;11.90;91.90;;;;;;5229382;28;20579;-50
2023/10/15 12:59:19;;;;;;;0.77;0.77;;;11.60;92.20;;;;;;5229986;28;20190;-50
2023/10/15 13:01:50;;;;;;;1.83;1.70;;;11.60;93.00;;;;;;5252528;28;20175;-50
2023/10/15 13:04:21;;;;;;;2.17;1.20;;;11.70;92.70;;;;;;5233673;28;20432;-49
2023/10/15 13:06:53;;;;;;;3.67;1.13;;;11.80;92.20;;;;;;5256530;28;20460;-50
2023/10/15 13:09:32;;;;;;;8.80;2.70;;;11.80;91.80;;;;;;5230008;28;20432;-50
2023/10/15 13:12:06;;;;;;;10.93;2.90;;;11.80;91.40;;;;;;5248185;28;20467;-49
2023/10/15 13:14:38;;;;;;;3.90;0.90;;;11.80;91.30;;;;;;5246840;28;20529;-51
2023/10/15 13:17:08;;;;;;;1.90;1.80;;;11.90;90.70;;;;;;5231123;28;20798;-49
2023/10/15 13:19:39;;;;;;;4.17;1.20;;;12.00;90.40;;;;;;5248565;28;20423;-50
2023/10/15 13:22:10;;;;;;;3.73;2.70;;;12.10;90.10;;;;;;5253049;28;20178;-50
2023/10/15 13:24:41;;;;;;;4.40;2.97;;;12.10;89.70;;;;;;5247896;28;20455;-50
2023/10/15 13:27:12;;;;;;;3.07;1.33;;;12.30;88.50;;;;;;5233113;28;20817;-50
2023/10/15 13:29:42;;;;;;;4.50;3.40;;;12.40;88.10;;;;;;5247830;28;20189;-49
2023/10/15 13:32:14;;;;;;;1.33;0.93;;;12.50;87.20;;;;;;5249235;28;20201;-50
2023/10/15 13:34:45;;;;;;;3.40;2.63;;;12.60;87.50;;;;;;5255706;28;20174;-49
2023/10/15 13:37:15;;;;;;;1.47;1.00;;;12.50;86.50;;;;;;5247782;28;20444;-49
2023/10/15 13:39:49;;;;;;;1.60;1.50;;;12.40;86.80;;;;;;5221001;28;20194;-49
2023/10/15 13:42:20;;;;;;;8.43;2.50;;;12.60;87.60;;;;;;5244769;28;20249;-48
2023/10/15 13:44:51;;;;;;;4.27;1.90;;;12.80;87.00;;;;;;5251317;28;20444;-49